Japan Airlines Virtual Airport Information Service

Beijing Daxing International Airport

ICAO: ZBAD Country: China
Latitude: 39.5092 Longitude: 116.411
Latest Arrival : MAS318 (WMKK-ZBAD) Latest Departure : CES5130 (ZBAD-ZSPD)


WX CaptureLIVE
Data provided by noaa.gov | Fetched at 17:16:47

METAR : ZBAD 041700Z 34001MPS CAVOK M03/M07 Q1025 NOSIG

TAF : ZBAD 021339Z 0212/0312 02005MPS CAVOK TX11/0307Z TNM01/0221Z BECMG 0300/0301 24004MPS


Runway Data for ZBAD
Data provided by openaviationdata.com

Runway ID Mag Var Hdg Length Elevation Surface ILS Freq ILS Id ILS Slope

Beijing Daxing International Airport, China
Use only for reference purposes



Not for navigational purposes.